• Join FlightAware (Why Join?)
  • Login
  • US Flag 
08:11AM EDT


 

Airport Tracker/Info


-or-


 

Live Flight TrackerFlight Track Log ✈ DAL3672 ✈ 20-Apr-2013 ✈ KDTW - KMHT

Flight Track Log - Related Links

Times and Time Zones

All times are in EDT time to prevent confusion due to time zone crossing. See the DAL3672 flight status page for this flight to view local times or setup timezone preferences in your user account.

Time Position Orientation Groundspeed Altitude Reporting Facility
EDT Latitude Longitude Course Direction KTS MPH feet Rate Location/Type
10:35AM 42.1678 -83.3511 94° East 200 230 3,300  Level FAA TRACON SMA TRACON (SMA)
10:35AM 42.1472 -83.3472 172° South 206 237 4,400 2,520 Climbing FAA TRACON SMA TRACON (SMA)
10:36AM 42.1250 -83.3439 174° South 238 274 5,000 2,100 Climbing FAA TRACON SMA TRACON (SMA)
10:36AM 42.1042 -83.3339 160° South 268 308 5,800 2,100 Climbing FAA TRACON SMA TRACON (SMA)
10:36AM 42.0883 -83.3144 138° Southeast 279 321 6,400 2,520 Climbing FAA TRACON SMA TRACON (SMA)
10:37AM 42.2947 -82.8414 74° East  Level FlightAware Approximate
10:37AM 42.0808 -83.2717 103° East 296 341 7,500  Level FAA TRACON SMA TRACON (SMA)
10:37AM 42.0867 -83.2381 77° East 301 346 8,200 2,220 Climbing FAA TRACON SMA TRACON (SMA)
10:37AM 42.0947 -83.2094 69° East 309 356 9,000 2,700 Climbing FAA TRACON SMA TRACON (SMA)
10:38AM 42.3228 -82.6685 78° East  Level FlightAware Approximate
10:38AM 42.1111 -83.1675 62° Northeast 306 352 10,000  Level FAA TRACON SMA TRACON (SMA)
10:38AM 42.1233 -83.1350 63° Northeast 319 367 10,400 1,200 Climbing FAA TRACON SMA TRACON (SMA)
10:38AM 42.1394 -83.0903 64° Northeast 359 413 10,800 1,500 Climbing FAA TRACON SMA TRACON (SMA)
10:39AM 42.3481 -82.4950 77° East  Level FlightAware Approximate
10:39AM 42.1531 -83.0536 63° Northeast 359 413 11,400  Level FAA TRACON SMA TRACON (SMA)
10:39AM 42.1667 -83.0161 64° Northeast 363 418 12,000 2,100 Climbing FAA TRACON SMA TRACON (SMA)
10:39AM 42.1842 -82.9686 64° Northeast 369 425 12,800 2,220 Climbing FAA TRACON SMA TRACON (SMA)
10:40AM 42.3598 -82.3253 94° East  Level FlightAware Approximate
10:40AM 42.1981 -82.9297 64° Northeast 373 429 13,500  Level FAA TRACON SMA TRACON (SMA)
10:40AM 42.2125 -82.8906 64° Northeast 375 432 14,000 1,920 Climbing FAA TRACON SMA TRACON (SMA)
10:40AM 42.2303 -82.8414 64° Northeast 379 436 14,800 1,920 Climbing FAA TRACON SMA TRACON (SMA)
10:41AM 42.2439 -82.8047 63° Northeast 381 438 15,300 1,560 Climbing FAA TRACON SMA TRACON (SMA)
10:41AM 42.2589 -82.7608 65° Northeast 387 445 15,900 1,920 Climbing FAA TRACON SMA TRACON (SMA)
10:41AM 42.2775 -82.7097 64° Northeast 392 451 16,600 1,620 Climbing FAA TRACON SMA TRACON (SMA)
10:42AM 42.2914 -82.6714 64° Northeast 394 453 17,000 1,620 Climbing FAA TRACON SMA TRACON (SMA)
10:42AM 42.3072 -82.6269 64° Northeast 398 458 17,700 1,680 Climbing FAA TRACON SMA TRACON (SMA)
10:42AM 42.3258 -82.5747 64° Northeast 400 460 18,100 1,020 Climbing FAA TRACON SMA TRACON (SMA)
10:43AM 42.3417 -82.5372 60° Northeast 404 465 18,400 1,200 Climbing FAA TRACON SMA TRACON (SMA)
10:43AM 42.3575 -82.4897 66° East 411 473 18,900 1,620 Climbing FAA TRACON SMA TRACON (SMA)
10:43AM 42.3675 -82.4306 77° East 416 479 19,500 1,320 Climbing FAA TRACON SMA TRACON (SMA)
10:44AM 42.3672 -82.3881 90° East 427 491 19,800 1,020 Climbing FAA TRACON SMA TRACON (SMA)
10:44AM 42.3644 -82.3325 94° East 426 490 20,200 1,320 Climbing FAA TRACON SMA TRACON (SMA)
10:44AM 42.3619 -82.2703 93° East 429 494 20,700 900 Climbing FAA TRACON SMA TRACON (SMA)
10:45AM 42.3594 -82.1828 92° East 433 498 21,100 360 Climbing FAA TRACON SMA TRACON (SMA)
10:45AM 42.3594 -82.1828 20° North 433 498 21,100  Level FAA TRACON SMA TRACON (SMA)
10:46AM 42.3594 -82.1828 20° North 433 498 21,100 1,020 Level FAA TRACON SMA TRACON (SMA)
10:46AM 42.3461 -81.9206 94° East 457 526 22,200 1,080 Climbing Cleveland Center
10:47AM 42.3394 -81.7658 93° East 462 532 23,000 900 Climbing Cleveland Center
10:48AM 42.3308 -81.5914 94° East 462 532 24,000 1,020 Climbing Cleveland Center
10:49AM 42.3239 -81.4117 93° East 462 532 25,100 780 Climbing Cleveland Center
10:50AM 42.3144 -81.2347 94° East 467 537 25,600 480 Climbing Cleveland Center
10:51AM 42.3050 -81.0547 94° East 472 543 26,100 480 Climbing Cleveland Center
10:52AM 42.2931 -80.8525 94° East 479 551 26,600 480 Climbing Cleveland Center
10:53AM 42.2850 -80.6675 93° East 485 558 27,100 480 Climbing Cleveland Center
10:54AM 42.2872 -80.4822 89° East 493 567 27,600 480 Climbing Cleveland Center
10:55AM 42.3036 -80.2939 83° East 503 579 28,100 540 Climbing Cleveland Center
10:56AM 42.3217 -80.1031 83° East 503 579 28,700 480 Climbing Cleveland Center
10:57AM 42.3394 -79.9314 82° East 503 579 29,100 420 Climbing Cleveland Center
10:58AM 42.3572 -79.7458 83° East 503 579 29,600 480 Climbing Cleveland Center
10:59AM 42.3744 -79.5544 83° East 503 579 30,100 480 Climbing Cleveland Center
11:00AM 42.3914 -79.3658 83° East 503 579 30,600 420 Climbing Cleveland Center
11:01AM 42.4078 -79.1772 83° East 503 579 31,000 180 Climbing Cleveland Center
11:02AM 42.4242 -78.9883 83° East 503 579 31,000  Level Cleveland Center
11:03AM 42.4419 -78.7797 83° East 503 579 31,000  Level Cleveland Center
11:04AM 42.4578 -78.5964 83° East 503 579 31,000  Level Cleveland Center
11:05AM 42.4731 -78.4100 84° East 497 572 31,000  Level Cleveland Center
11:06AM 42.4886 -78.2378 83° East 503 579 31,000  Level Cleveland Center
11:07AM 42.5011 -78.0514 85° East 503 579 31,000  Level Cleveland Center
11:08AM 42.5158 -77.8647 84° East 503 579 31,000  Level Cleveland Center
11:09AM 42.5336 -77.6611 83° East 503 579 31,000  Level Cleveland Center
11:10AM 42.5411 -77.4692 87° East 503 579 31,000  Level Cleveland Center
11:11AM 42.5572 -77.2992 83° East 503 579 31,000  Level Cleveland Center
11:12AM 42.5683 -77.1069 85° East 503 579 31,000  Level Cleveland Center
11:14AM 42.5931 -76.7700 84° East 495 570 31,000  Level Boston Center
11:15AM 42.6044 -76.5731 85° East 508 585 31,000  Level Boston Center
11:16AM 42.6178 -76.3764 85° East 513 590 31,000  Level Boston Center
11:17AM 42.6300 -76.2022 84° East 513 590 31,000  Level Boston Center
11:18AM 42.6403 -76.0108 86° East 513 590 31,000  Level Boston Center
11:19AM 42.6503 -75.8164 86° East 513 590 31,000  Level Boston Center
11:20AM 42.6603 -75.6194 86° East 513 590 31,000  Level Boston Center
11:21AM 42.6739 -75.4253 84° East 513 590 31,000 -240 Level Boston Center
11:22AM 42.6831 -75.2308 86° East 513 590 30,600 -720 Descending Boston Center
11:23AM 42.6939 -75.0333 86° East 513 590 29,600 -840 Descending Boston Center
11:24AM 42.7025 -74.8361 87° East 513 590 29,000 -300 Descending Boston Center
11:25AM 42.7125 -74.6414 86° East 513 590 29,000 -60 Level Boston Center
11:26AM 42.7208 -74.4242 87° East 518 596 28,900 -720 Descending Boston Center
11:27AM 42.7281 -74.2319 87° East 518 596 27,600 -1,800 Descending Boston Center
11:28AM 42.7353 -74.0344 87° East 518 596 25,400 -2,400 Descending Boston Center
11:29AM 42.7439 -73.8422 86° East 512 589 22,900 -2,400 Descending Boston Center
11:30AM 42.7522 -73.6728 86° East 504 580 20,700 -1,920 Descending Boston Center
11:31AM 42.7603 -73.4750 87° East 491 565 19,100 -900 Descending Boston Center
11:32AM 42.7639 -73.2969 88° East 477 549 19,000 -60 Descending Boston Center
11:33AM 42.7692 -73.1331 87° East 471 542 19,000 -60 Level Boston Center
11:34AM 42.7786 -72.9550 86° East 471 542 18,900 -960 Descending Boston Center
11:35AM 42.7833 -72.7597 88° East 471 542 17,100 -1,800 Descending Boston Center
11:36AM 42.7881 -72.5928 88° East 458 527 15,300 -1,800 Descending Boston Center
11:37AM 42.7922 -72.4344 88° East 433 498 13,500 -1,680 Descending Boston Center
11:38AM 42.7942 -72.2931 89° East 401 461 12,000 -1,440 Descending Boston Center
11:39AM 42.8022 -72.1628 85° East 363 418 10,700 -1,620 Descending Boston Center
11:40AM 42.8122 -72.0411 84° East 332 382 8,800 -1,800 Descending Boston Center
11:41AM 42.8222 -71.9192 84° East 326 375 7,200 -1,620 Descending Boston Center
11:42AM 42.8156 -71.8089 95° East 302 348 5,600 -1,500 Descending Boston Center
11:43AM 42.8003 -71.7044 101° East 284 327 4,200 -1,140 Descending Boston Center
11:44AM 42.7828 -71.6083 104° East 268 308 3,400 -600 Descending Boston Center
11:45AM 42.7803 -71.5292 92° East 243 280 3,000 -420 Descending Boston Center
11:46AM 42.7961 -71.4383 77° East 225 259 2,600 -420 Descending Boston Center